createdAt,value
2022-12-23T00:01:23.086Z,2.22
2022-12-23T00:03:51.711Z,2.20
2022-12-23T00:06:20.380Z,2.19
2022-12-23T00:08:48.417Z,2.19
2022-12-23T00:11:18.233Z,2.18
2022-12-23T00:14:05.298Z,2.18
2022-12-23T00:16:35.845Z,2.19
2022-12-23T00:19:03.845Z,2.19
2022-12-23T00:21:32.016Z,2.20
2022-12-23T00:23:59.872Z,2.21
2022-12-23T00:26:28.975Z,2.22
2022-12-23T00:28:58.730Z,2.22
2022-12-23T00:31:26.691Z,2.22
2022-12-23T00:33:54.842Z,2.21
2022-12-23T00:36:24.523Z,2.20
2022-12-23T00:39:11.171Z,2.18
2022-12-23T00:41:58.162Z,2.16
2022-12-23T00:44:26.033Z,2.16
2022-12-23T00:46:54.118Z,2.15
2022-12-23T00:49:41.046Z,2.14
2022-12-23T00:52:12.263Z,2.13
2022-12-23T00:54:40.545Z,2.11
2022-12-23T00:57:08.475Z,2.11
2022-12-23T00:59:36.399Z,2.11
2022-12-23T01:02:22.801Z,2.12
2022-12-23T01:05:29.820Z,2.13
2022-12-23T01:07:57.850Z,2.15
2022-12-23T01:10:25.814Z,2.18
2022-12-23T01:12:53.670Z,2.19
2022-12-23T01:15:21.849Z,2.20
2022-12-23T01:17:49.815Z,2.20
2022-12-23T01:20:17.779Z,2.21
2022-12-23T01:22:45.853Z,2.23
2022-12-23T01:25:14.238Z,2.27
2022-12-23T01:27:42.204Z,2.32
2022-12-23T01:30:10.481Z,2.36
2022-12-23T01:32:38.451Z,2.41
2022-12-23T01:35:06.503Z,2.47
2022-12-23T01:37:34.620Z,2.52
2022-12-23T01:40:02.785Z,2.54
2022-12-23T01:42:46.739Z,2.58
2022-12-23T01:45:20.457Z,2.65
2022-12-23T01:47:48.496Z,2.73
2022-12-23T01:50:36.650Z,2.81
2022-12-23T01:53:13.819Z,2.84
2022-12-23T01:55:41.797Z,2.88
2022-12-23T01:58:15.547Z,2.90
2022-12-23T02:01:02.299Z,2.94
2022-12-23T02:03:42.821Z,2.98
2022-12-23T02:06:37.042Z,2.97
2022-12-23T02:09:19.222Z,2.92
2022-12-23T02:12:05.957Z,2.89
2022-12-23T02:15:00.959Z,2.93
2022-12-23T02:17:44.195Z,2.96
2022-12-23T02:20:28.129Z,2.99
2022-12-23T02:22:55.872Z,2.98
2022-12-23T02:25:26.413Z,2.95
2022-12-23T02:28:10.021Z,2.94
2022-12-23T02:30:44.511Z,2.91
2022-12-23T02:33:31.297Z,2.87
2022-12-23T02:36:19.543Z,2.81
2022-12-23T02:39:07.895Z,2.75
2022-12-23T02:41:54.805Z,2.68
2022-12-23T02:44:25.840Z,2.61
2022-12-23T02:47:05.892Z,2.55
2022-12-23T02:49:36.323Z,2.51
2022-12-23T02:52:07.870Z,2.49
2022-12-23T02:54:39.134Z,2.48
2022-12-23T02:57:08.738Z,2.45
2022-12-23T02:59:39.979Z,2.41
2022-12-23T03:02:08.084Z,2.39
2022-12-23T03:04:40.555Z,2.35
2022-12-23T03:07:18.673Z,2.33
2022-12-23T03:09:53.192Z,2.30
2022-12-23T03:12:59.930Z,2.27
2022-12-23T03:15:49.423Z,2.24
2022-12-23T03:18:26.587Z,2.20
2022-12-23T03:20:54.675Z,2.16
2022-12-23T03:23:25.505Z,2.14
2022-12-23T03:25:56.266Z,2.14
2022-12-23T03:28:32.603Z,2.12
2022-12-23T03:31:02.684Z,2.13
2022-12-23T03:33:42.776Z,2.14
2022-12-23T03:36:15.652Z,2.14
2022-12-23T03:38:45.372Z,2.14
2022-12-23T03:41:16.407Z,2.13
2022-12-23T03:43:56.766Z,2.12
2022-12-23T03:46:43.140Z,2.11
2022-12-23T03:49:22.814Z,2.11
2022-12-23T03:51:56.928Z,2.10
2022-12-23T03:54:28.176Z,2.10
2022-12-23T03:57:02.400Z,2.11
2022-12-23T03:59:36.799Z,2.11
2022-12-23T04:02:23.692Z,2.12
2022-12-23T04:04:52.208Z,2.10
2022-12-23T04:07:40.391Z,2.08
2022-12-23T04:10:09.320Z,2.05
2022-12-23T04:12:38.013Z,2.02
2022-12-23T04:15:12.302Z,2.00
2022-12-23T04:17:40.931Z,1.96
2022-12-23T04:20:09.001Z,1.91
2022-12-23T04:22:37.177Z,1.87
2022-12-23T04:25:05.687Z,1.85
2022-12-23T04:27:33.508Z,1.81
2022-12-23T04:30:01.618Z,1.77
2022-12-23T04:32:29.581Z,1.74
2022-12-23T04:34:57.537Z,1.70
2022-12-23T04:37:25.507Z,1.66
2022-12-23T04:39:53.372Z,1.62
2022-12-23T04:42:21.444Z,1.59
2022-12-23T04:44:49.382Z,1.57
2022-12-23T04:47:17.529Z,1.55
2022-12-23T04:49:45.559Z,1.52
2022-12-23T04:52:13.654Z,1.50
2022-12-23T04:54:45.985Z,1.49
2022-12-23T04:57:15.613Z,1.47
2022-12-23T04:59:43.543Z,1.45
2022-12-23T05:02:11.660Z,1.42
2022-12-23T05:04:40.051Z,1.39
2022-12-23T05:07:08.374Z,1.36
2022-12-23T05:09:36.478Z,1.33
2022-12-23T05:12:04.553Z,1.29
2022-12-23T05:14:32.533Z,1.26
2022-12-23T05:17:06.914Z,1.23
2022-12-23T05:19:35.316Z,1.21
2022-12-23T05:22:03.183Z,1.19
2022-12-23T05:24:31.152Z,1.17
2022-12-23T05:27:00.333Z,1.16
2022-12-23T05:29:28.531Z,1.13
2022-12-23T05:31:56.500Z,1.09
2022-12-23T05:34:24.463Z,1.09
2022-12-23T05:36:52.443Z,1.08
2022-12-23T05:39:20.514Z,1.07
2022-12-23T05:41:48.682Z,1.06
2022-12-23T05:44:16.580Z,1.07
2022-12-23T05:46:44.597Z,1.08
2022-12-23T05:49:12.587Z,1.09
2022-12-23T05:51:40.551Z,1.11
2022-12-23T05:54:08.367Z,1.14
2022-12-23T05:56:36.188Z,1.20
2022-12-23T05:59:04.360Z,1.26
2022-12-23T06:01:32.279Z,1.36
2022-12-23T06:04:00.431Z,1.46
2022-12-23T06:06:28.999Z,1.54
2022-12-23T06:08:59.751Z,1.63
2022-12-23T06:11:28.631Z,1.69
2022-12-23T06:13:56.589Z,1.72
2022-12-23T06:16:24.615Z,1.74
2022-12-23T06:18:56.623Z,1.72
2022-12-23T06:21:25.737Z,1.71
2022-12-23T06:23:53.579Z,1.68
2022-12-23T06:26:21.559Z,1.63
2022-12-23T06:28:50.028Z,1.56
2022-12-23T06:31:17.928Z,1.52
2022-12-23T06:33:46.192Z,1.49
2022-12-23T06:36:14.246Z,1.44
2022-12-23T06:38:42.160Z,1.38
2022-12-23T06:41:10.595Z,1.32
2022-12-23T06:43:38.572Z,1.26
2022-12-23T06:46:06.455Z,1.25
2022-12-23T06:48:34.509Z,1.25
2022-12-23T06:51:02.374Z,1.25
2022-12-23T06:53:30.247Z,1.23
2022-12-23T06:56:01.717Z,1.22
2022-12-23T06:58:29.870Z,1.21
2022-12-23T07:00:57.789Z,1.21
2022-12-23T07:03:26.105Z,1.22
2022-12-23T07:05:54.318Z,1.22
2022-12-23T07:08:22.269Z,1.23
2022-12-23T07:10:50.440Z,1.25
2022-12-23T07:13:18.394Z,1.28
2022-12-23T07:15:46.268Z,1.33
2022-12-23T07:18:14.240Z,1.37
2022-12-23T07:20:42.112Z,1.40
2022-12-23T07:23:10.052Z,1.42
2022-12-23T07:25:38.044Z,1.45
2022-12-23T07:28:06.007Z,1.49
2022-12-23T07:30:33.806Z,1.51
2022-12-23T07:33:01.821Z,1.54
2022-12-23T07:35:29.714Z,1.56
2022-12-23T07:37:57.788Z,1.59
2022-12-23T07:40:26.015Z,1.63
2022-12-23T07:42:54.854Z,1.66
2022-12-23T07:45:23.127Z,1.69
2022-12-23T07:47:54.897Z,1.72
2022-12-23T07:50:23.160Z,1.74
2022-12-23T07:52:51.949Z,1.76
2022-12-23T07:55:20.543Z,1.79
2022-12-23T07:57:52.394Z,1.81
2022-12-23T08:00:20.670Z,1.82
2022-12-23T08:02:48.976Z,1.85
2022-12-23T08:05:18.992Z,1.85
2022-12-23T08:07:49.593Z,1.86
2022-12-23T08:10:17.586Z,1.90
2022-12-23T08:12:46.771Z,1.93
2022-12-23T08:15:14.649Z,1.98
2022-12-23T08:17:42.702Z,1.99
2022-12-23T08:20:10.886Z,2.03
2022-12-23T08:22:38.961Z,2.07
2022-12-23T08:25:07.108Z,2.08
2022-12-23T08:27:36.014Z,2.08
2022-12-23T08:30:04.097Z,2.08
2022-12-23T08:32:32.062Z,2.10
2022-12-23T08:35:00.037Z,2.14
2022-12-23T08:37:28.000Z,2.17
2022-12-23T08:39:55.815Z,2.22
2022-12-23T08:42:23.730Z,2.24
2022-12-23T08:44:51.615Z,2.29
2022-12-23T08:47:19.564Z,2.33
2022-12-23T08:49:48.125Z,2.36
2022-12-23T08:52:16.305Z,2.39
2022-12-23T08:54:44.297Z,2.42
2022-12-23T08:57:12.364Z,2.46
2022-12-23T08:59:40.343Z,2.51
2022-12-23T09:02:09.941Z,2.51
2022-12-23T09:04:38.319Z,2.54
2022-12-23T09:07:06.514Z,2.58
2022-12-23T09:09:34.391Z,2.63
2022-12-23T09:12:02.349Z,2.67
2022-12-23T09:14:30.416Z,2.72
2022-12-23T09:16:58.386Z,2.77
2022-12-23T09:19:26.347Z,2.84
2022-12-23T09:21:54.283Z,2.92
2022-12-23T09:24:22.281Z,2.99
2022-12-23T09:26:50.291Z,3.04
2022-12-23T09:29:18.332Z,3.09
2022-12-23T09:31:46.485Z,3.14
2022-12-23T09:34:14.571Z,3.18
2022-12-23T09:36:42.488Z,3.22
2022-12-23T09:39:10.515Z,3.26
2022-12-23T09:41:38.384Z,3.30
2022-12-23T09:44:15.357Z,3.33
2022-12-23T09:46:48.461Z,3.37
2022-12-23T09:49:17.847Z,3.40
2022-12-23T09:51:48.075Z,3.43
2022-12-23T09:54:17.363Z,3.46
2022-12-23T09:56:57.836Z,3.48
2022-12-23T09:59:31.946Z,3.50
2022-12-23T10:02:00.048Z,3.53
2022-12-23T10:04:28.135Z,3.56
2022-12-23T10:07:09.276Z,3.61
2022-12-23T10:09:39.701Z,3.67
2022-12-23T10:12:30.583Z,3.73
2022-12-23T10:15:01.237Z,3.81
2022-12-23T10:17:34.238Z,3.89
2022-12-23T10:20:03.798Z,4.00
2022-12-23T10:22:38.761Z,4.10
2022-12-23T10:25:20.254Z,4.17
2022-12-23T10:27:48.218Z,4.21
2022-12-23T10:33:30.758Z,4.35
2022-12-23T10:36:07.362Z,4.44
2022-12-23T10:38:42.976Z,4.52
2022-12-23T10:41:22.937Z,4.56
2022-12-23T10:44:03.323Z,4.64
2022-12-23T10:46:31.354Z,4.70
2022-12-23T10:49:03.741Z,4.76
2022-12-23T10:51:35.616Z,4.80
2022-12-23T10:54:09.602Z,4.83
2022-12-23T10:56:38.182Z,4.84
2022-12-23T10:59:06.666Z,4.83
2022-12-23T11:01:34.896Z,4.84
2022-12-23T11:04:03.019Z,4.84
2022-12-23T11:06:37.155Z,4.84
2022-12-23T11:09:07.250Z,4.83
2022-12-23T11:11:53.656Z,4.79
2022-12-23T11:14:30.743Z,4.73
2022-12-23T11:16:58.703Z,4.71
2022-12-23T11:19:27.119Z,4.63
2022-12-23T11:21:56.391Z,4.65
2022-12-23T11:24:25.280Z,4.60
2022-12-23T11:26:59.698Z,4.60
2022-12-23T11:29:29.612Z,4.61
2022-12-23T11:31:57.820Z,4.58
2022-12-23T11:34:27.427Z,4.58
2022-12-23T11:37:03.327Z,4.61
2022-12-23T11:39:36.692Z,4.62
2022-12-23T11:42:04.722Z,4.64
2022-12-23T11:44:40.259Z,4.67
2022-12-23T11:47:39.821Z,4.70
2022-12-23T11:50:27.403Z,4.74
2022-12-23T11:53:00.536Z,4.79
2022-12-23T11:55:32.995Z,4.83
2022-12-23T11:58:02.057Z,4.85
2022-12-23T12:00:41.025Z,4.82
2022-12-23T12:03:16.959Z,4.74
2022-12-23T12:05:49.926Z,4.77
2022-12-23T12:08:22.515Z,4.78
2022-12-23T12:10:52.836Z,4.77
2022-12-23T12:13:31.378Z,4.77
2022-12-23T12:15:59.319Z,4.77
2022-12-23T12:18:27.807Z,4.75
2022-12-23T12:20:59.541Z,4.73
2022-12-23T12:23:30.193Z,4.73
2022-12-23T12:26:01.350Z,4.72
2022-12-23T12:28:40.248Z,4.76
2022-12-23T12:31:23.172Z,4.80
2022-12-23T12:33:54.740Z,4.85
2022-12-23T12:36:41.338Z,4.89
2022-12-23T12:39:17.507Z,4.92
2022-12-23T12:42:00.060Z,4.95
2022-12-23T12:44:48.094Z,4.99
2022-12-23T12:47:52.888Z,5.04
2022-12-23T12:50:27.196Z,5.09
2022-12-23T12:52:58.391Z,5.14
2022-12-23T12:55:28.369Z,5.20
2022-12-23T12:57:56.662Z,5.25
2022-12-23T13:00:25.424Z,5.31
2022-12-23T13:02:53.345Z,5.37
2022-12-23T13:05:32.778Z,5.44
2022-12-23T13:08:03.878Z,5.52
2022-12-23T13:10:34.535Z,5.60
2022-12-23T13:13:17.867Z,5.67
2022-12-23T13:16:00.258Z,5.73
2022-12-23T13:18:43.493Z,5.77
2022-12-23T13:21:31.237Z,5.83
2022-12-23T13:24:05.132Z,5.86
2022-12-23T13:26:52.235Z,5.86
2022-12-23T13:29:29.427Z,5.86
2022-12-23T13:32:00.437Z,5.84
2022-12-23T13:34:34.488Z,5.83
2022-12-23T13:37:14.476Z,5.78
2022-12-23T13:40:01.282Z,5.75
2022-12-23T13:42:36.576Z,5.73
2022-12-23T13:45:06.502Z,5.69
2022-12-23T13:47:40.409Z,5.66
2022-12-23T13:50:08.356Z,5.63
2022-12-23T13:52:48.530Z,5.60
2022-12-23T13:55:25.823Z,5.57
2022-12-23T13:58:03.504Z,5.54
2022-12-23T14:00:32.921Z,5.51
2022-12-23T14:03:00.972Z,5.47
2022-12-23T14:05:30.281Z,5.45
2022-12-23T14:08:00.251Z,5.42
2022-12-23T14:10:28.683Z,5.39
2022-12-23T14:13:05.230Z,5.35
2022-12-23T14:15:39.517Z,5.31
2022-12-23T14:18:28.437Z,5.27
2022-12-23T14:20:56.389Z,5.24
2022-12-23T14:23:27.409Z,5.22
2022-12-23T14:26:10.564Z,5.19
2022-12-23T14:28:41.286Z,5.17
2022-12-23T14:31:28.887Z,5.14
2022-12-23T14:34:04.653Z,5.13
2022-12-23T14:36:33.302Z,5.11
2022-12-23T14:39:13.829Z,5.08
2022-12-23T14:41:50.724Z,5.05
2022-12-23T14:44:41.824Z,5.02
2022-12-23T14:47:29.935Z,4.99
2022-12-23T14:50:17.935Z,4.96
2022-12-23T14:52:50.379Z,4.93
2022-12-23T14:55:38.686Z,4.92
2022-12-23T14:58:17.863Z,4.92
2022-12-23T15:01:06.056Z,4.92
2022-12-23T15:03:40.119Z,4.92
2022-12-23T15:06:08.075Z,4.91
2022-12-23T15:08:41.384Z,4.95
2022-12-23T15:11:15.486Z,4.97
2022-12-23T15:13:44.401Z,4.97
2022-12-23T15:16:18.457Z,4.96
2022-12-23T15:18:53.480Z,4.96
2022-12-23T15:21:27.475Z,4.94
2022-12-23T15:23:55.914Z,4.92
2022-12-23T15:26:26.241Z,4.91
2022-12-23T15:28:54.429Z,4.90
2022-12-23T15:31:26.520Z,4.89
2022-12-23T15:34:04.362Z,4.87
2022-12-23T15:36:40.431Z,4.83
2022-12-23T15:39:20.404Z,4.80
2022-12-23T15:41:48.790Z,4.79
2022-12-23T15:44:21.459Z,4.79
2022-12-23T15:46:50.739Z,4.79
2022-12-23T15:49:19.855Z,4.79
2022-12-23T15:52:09.801Z,4.77
2022-12-23T15:54:44.757Z,4.75
2022-12-23T15:57:17.952Z,4.74
2022-12-23T15:59:46.170Z,4.73
2022-12-23T16:05:08.589Z,4.69
2022-12-23T16:07:40.673Z,4.71
2022-12-23T16:10:16.512Z,4.73
2022-12-23T16:12:44.600Z,4.72
2022-12-23T16:15:20.329Z,4.69
2022-12-23T16:17:48.513Z,4.65
2022-12-23T16:20:21.686Z,4.63
2022-12-23T16:22:52.021Z,4.64
2022-12-23T16:25:27.682Z,4.70
2022-12-23T16:27:57.790Z,4.75
2022-12-23T16:30:33.851Z,4.78
2022-12-23T16:33:07.046Z,4.82
2022-12-23T16:35:39.624Z,4.84
2022-12-23T16:38:15.688Z,4.86
2022-12-23T16:40:44.926Z,4.94
2022-12-23T16:43:13.252Z,4.99
2022-12-23T16:45:41.876Z,5.02
2022-12-23T16:48:19.249Z,5.02
2022-12-23T16:50:48.739Z,5.04
2022-12-23T16:53:16.758Z,5.04
2022-12-23T16:55:51.379Z,5.01
2022-12-23T16:58:23.088Z,4.98
2022-12-23T17:00:51.490Z,4.95
2022-12-23T17:03:20.772Z,4.91
2022-12-23T17:05:49.482Z,4.85
2022-12-23T17:08:17.836Z,4.79
2022-12-23T17:10:45.978Z,4.71
2022-12-23T17:13:16.545Z,4.63
2022-12-23T17:15:45.225Z,4.56
2022-12-23T17:18:17.148Z,4.50
2022-12-23T17:20:45.978Z,4.46
2022-12-23T17:23:28.194Z,4.42
2022-12-23T17:25:56.560Z,4.35
2022-12-23T17:28:29.150Z,4.29
2022-12-23T17:30:58.123Z,4.26
2022-12-23T17:33:28.253Z,4.23
2022-12-23T17:35:56.347Z,4.19
2022-12-23T17:38:24.918Z,4.17
2022-12-23T17:40:52.978Z,4.14
2022-12-23T17:43:21.157Z,4.11
2022-12-23T17:45:49.273Z,4.08
2022-12-23T17:48:22.181Z,4.04
2022-12-23T17:50:51.116Z,4.02
2022-12-23T17:53:19.503Z,4.00
2022-12-23T17:55:47.458Z,3.98
2022-12-23T17:58:16.539Z,3.95
2022-12-23T18:00:44.559Z,3.91
2022-12-23T18:03:21.711Z,3.87
2022-12-23T18:05:53.016Z,3.81
2022-12-23T18:08:26.035Z,3.77
2022-12-23T18:10:54.003Z,3.74
2022-12-23T18:13:21.969Z,3.71
2022-12-23T18:15:50.260Z,3.68
2022-12-23T18:18:24.107Z,3.65
2022-12-23T18:20:57.278Z,3.59
2022-12-23T18:23:26.802Z,3.52
2022-12-23T18:25:55.551Z,3.45
2022-12-23T18:28:23.825Z,3.40
2022-12-23T18:30:53.994Z,3.31
2022-12-23T18:33:22.321Z,3.21
2022-12-23T18:35:51.007Z,3.13
2022-12-23T18:38:18.868Z,3.07
2022-12-23T18:40:47.162Z,3.02
2022-12-23T18:43:19.853Z,2.99
2022-12-23T18:45:52.838Z,2.98
2022-12-23T18:48:21.726Z,2.97
2022-12-23T18:50:49.881Z,2.97
2022-12-23T18:53:23.755Z,2.99
2022-12-23T18:55:53.814Z,3.04
2022-12-23T18:58:22.194Z,3.07
2022-12-23T19:00:52.819Z,3.13
2022-12-23T19:03:23.143Z,3.20
2022-12-23T19:05:51.839Z,3.28
2022-12-23T19:08:25.941Z,3.34
2022-12-23T19:10:54.967Z,3.38
2022-12-23T19:13:23.336Z,3.41
2022-12-23T19:15:51.324Z,3.49
2022-12-23T19:18:20.478Z,3.59
2022-12-23T19:20:49.083Z,3.68
2022-12-23T19:23:17.145Z,3.79
2022-12-23T19:25:52.544Z,3.85
2022-12-23T19:28:23.125Z,3.86
2022-12-23T19:30:51.037Z,3.87
2022-12-23T19:33:19.062Z,3.86
2022-12-23T19:35:47.040Z,3.86
2022-12-23T19:38:14.990Z,3.84
2022-12-23T19:40:43.168Z,3.82
2022-12-23T19:43:11.141Z,3.80
2022-12-23T19:45:39.304Z,3.80
2022-12-23T19:48:07.285Z,3.81
2022-12-23T19:50:35.228Z,3.81
2022-12-23T19:53:03.120Z,3.79
2022-12-23T19:55:31.194Z,3.71
2022-12-23T19:57:59.154Z,3.63
2022-12-23T20:00:27.131Z,3.55
2022-12-23T20:02:58.657Z,3.47
2022-12-23T20:05:27.365Z,3.41
2022-12-23T20:07:55.208Z,3.32
2022-12-23T20:10:23.104Z,3.24
2022-12-23T20:12:51.081Z,3.18
2022-12-23T20:15:19.042Z,3.14
2022-12-23T20:17:47.004Z,3.08
2022-12-23T20:20:14.871Z,3.00
2022-12-23T20:22:42.848Z,2.88
2022-12-23T20:25:10.804Z,2.77
2022-12-23T20:27:38.902Z,2.66
2022-12-23T20:30:07.283Z,2.57
2022-12-23T20:32:35.338Z,2.52
2022-12-23T20:35:03.922Z,2.49
2022-12-23T20:37:31.784Z,2.46
2022-12-23T20:39:59.656Z,2.44
2022-12-23T20:42:28.140Z,2.42
2022-12-23T20:44:55.927Z,2.42
2022-12-23T20:47:23.769Z,2.42
2022-12-23T20:49:51.642Z,2.43
2022-12-23T20:52:19.613Z,2.44
2022-12-23T20:54:47.571Z,2.46
2022-12-23T20:57:15.643Z,2.46
2022-12-23T20:59:43.549Z,2.42
2022-12-23T21:02:14.974Z,2.38
2022-12-23T21:04:43.096Z,2.35
2022-12-23T21:07:11.144Z,2.35
2022-12-23T21:09:39.077Z,2.38
2022-12-23T21:12:07.148Z,2.40
2022-12-23T21:14:35.018Z,2.43
2022-12-23T21:17:03.011Z,2.46
2022-12-23T21:19:30.839Z,2.48
2022-12-23T21:21:58.828Z,2.51
2022-12-23T21:24:27.101Z,2.54
2022-12-23T21:26:57.064Z,2.57
2022-12-23T21:29:25.408Z,2.58
2022-12-23T21:31:53.549Z,2.61
2022-12-23T21:34:21.395Z,2.64
2022-12-23T21:36:49.601Z,2.67
2022-12-23T21:39:17.780Z,2.71
2022-12-23T21:41:46.038Z,2.78
2022-12-23T21:44:15.062Z,2.84
2022-12-23T21:46:43.320Z,2.90
2022-12-23T21:49:11.805Z,2.97
2022-12-23T21:51:41.294Z,3.03
2022-12-23T21:54:10.516Z,3.11
2022-12-23T21:56:39.614Z,3.17
2022-12-23T21:59:09.096Z,3.20
2022-12-23T22:01:36.986Z,3.22
2022-12-23T22:04:04.934Z,3.27
2022-12-23T22:06:40.799Z,3.31
2022-12-23T22:09:10.824Z,3.37
2022-12-23T22:11:39.261Z,3.42
2022-12-23T22:14:08.506Z,3.46
2022-12-23T22:16:36.690Z,3.47
2022-12-23T22:19:05.880Z,3.48
2022-12-23T22:21:34.489Z,3.56
2022-12-23T22:24:03.466Z,3.68
2022-12-23T22:26:32.558Z,3.78
2022-12-23T22:29:01.787Z,3.85
2022-12-23T22:31:48.364Z,3.89
2022-12-23T22:34:18.266Z,3.91
2022-12-23T22:36:47.025Z,3.91
2022-12-23T22:39:20.665Z,3.90
2022-12-23T22:41:50.600Z,3.87
2022-12-23T22:44:18.948Z,3.86
2022-12-23T22:46:47.042Z,3.86
2022-12-23T22:49:15.335Z,3.84
2022-12-23T22:51:44.015Z,3.83
2022-12-23T22:54:12.280Z,3.80
2022-12-23T22:56:40.155Z,3.77
2022-12-23T22:59:13.007Z,3.74
2022-12-23T23:01:40.913Z,3.71
2022-12-23T23:04:09.876Z,3.67
2022-12-23T23:06:38.895Z,3.64
2022-12-23T23:09:08.673Z,3.61
2022-12-23T23:11:36.755Z,3.58
2022-12-23T23:14:05.244Z,3.56
2022-12-23T23:16:33.628Z,3.55
2022-12-23T23:19:01.896Z,3.52
2022-12-23T23:21:29.862Z,3.50
2022-12-23T23:23:57.731Z,3.46
2022-12-23T23:26:27.543Z,3.40
2022-12-23T23:28:56.425Z,3.36
2022-12-23T23:31:41.934Z,3.36
2022-12-23T23:34:11.513Z,3.38
2022-12-23T23:36:40.182Z,3.40
2022-12-23T23:39:09.137Z,3.44
2022-12-23T23:41:37.070Z,3.48
2022-12-23T23:44:05.040Z,3.52
2022-12-23T23:46:33.587Z,3.58
2022-12-23T23:49:01.608Z,3.63
2022-12-23T23:51:29.564Z,3.66
2022-12-23T23:53:57.520Z,3.69
2022-12-23T23:56:27.298Z,3.76
2022-12-23T23:58:56.743Z,3.81
